Time;durP1;ratioP1;P1;durP2;ratioP2;P2;SDS_P1;SDS_P2;PMS_P1;PMS_P2;Temp;Humidity;BMP_temperature;BMP_pressure;BME280_temperature;BME280_humidity;BME280_pressure;Samples;Min_cycle;Max_cycle;Signal;HPM_P1;HPM_P2
2022/12/01 00:01:00;;;;;;;;;;;4.70;99.90;;;;;;5055183;28;19928;-84
2022/12/01 00:03:28;;;;;;;;;;;4.90;99.90;;;;;;5042365;28;20405;-85
2022/12/01 00:06:01;;;;;;;;;;;4.70;99.90;;;;;;5036280;28;20007;-85
2022/12/01 00:08:27;;;;;;;;;;;4.70;99.90;;;;;;5056157;28;19921;-85
2022/12/01 00:10:53;;;;;;;;;;;4.70;99.90;;;;;;5022242;28;19921;-85
2022/12/01 00:13:18;;;;;;;;;;;4.70;99.90;;;;;;5056022;28;19928;-85
2022/12/01 00:15:44;;;;;;;;;;;4.70;99.90;;;;;;5036060;28;19920;-85
2022/12/01 00:18:10;;;;;;;;;;;4.70;99.90;;;;;;5039706;28;19920;-85
2022/12/01 00:20:36;;;;;;;;;;;5.30;99.90;;;;;;5055198;28;19931;-83
2022/12/01 00:23:01;;;;;;;;;;;4.80;99.90;;;;;;5020769;28;19928;-85
2022/12/01 00:25:27;;;;;;;;;;;4.80;99.90;;;;;;5042000;28;19933;-85
2022/12/01 00:27:53;;;;;;;;;;;4.70;99.90;;;;;;5042383;28;19920;-85
2022/12/01 00:30:20;;;;;;;;;;;4.80;99.90;;;;;;5053938;28;19929;-85
2022/12/01 00:32:46;;;;;;;;;;;4.70;99.90;;;;;;5060237;28;19947;-84
2022/12/01 00:35:12;;;;;;;;;;;5.80;99.90;;;;;;5037648;28;20408;-82
2022/12/01 00:37:37;;;;;;;;;;;5.10;99.90;;;;;;5055095;28;19925;-84
2022/12/01 00:40:04;;;;;;;;;;;5.00;99.90;;;;;;5074061;28;19921;-85
2022/12/01 00:42:29;;;;;;;;;;;4.70;99.90;;;;;;5063914;28;19955;-85
2022/12/01 00:44:55;;;;;;;;;;;4.70;99.90;;;;;;5075378;28;19913;-85
2022/12/01 00:47:20;;;;;;;;;;;4.70;99.90;;;;;;5060768;28;19921;-85
2022/12/01 00:49:46;;;;;;;;;;;6.00;99.90;;;;;;5057787;28;19931;-84
2022/12/01 00:52:12;;;;;;;;;;;4.80;99.90;;;;;;5062756;28;19921;-83
2022/12/01 00:54:38;;;;;;;;;;;5.60;99.90;;;;;;5056910;28;19935;-84
2022/12/01 00:57:04;;;;;;;;;;;5.10;99.90;;;;;;5039538;28;19976;-85
2022/12/01 00:59:29;;;;;;;;;;;5.30;99.90;;;;;;5043958;28;20374;-85
2022/12/01 01:01:55;;;;;;;;;;;4.70;99.90;;;;;;5059106;28;19921;-84
2022/12/01 01:04:21;;;;;;;;;;;5.30;99.90;;;;;;5045072;28;20377;-85
2022/12/01 01:06:47;;;;;;;;;;;4.70;99.90;;;;;;5040817;28;20104;-85
2022/12/01 01:09:13;;;;;;;;;;;4.80;99.90;;;;;;5020584;28;19963;-85
2022/12/01 01:11:39;;;;;;;;;;;4.70;99.90;;;;;;5041167;28;19921;-85
2022/12/01 01:14:05;;;;;;;;;;;4.80;99.90;;;;;;5040355;28;19921;-85
2022/12/01 01:16:31;;;;;;;;;;;4.90;99.90;;;;;;5056545;28;19927;-85
2022/12/01 01:18:57;;;;;;;;;;;4.80;99.90;;;;;;5042937;28;20155;-85
2022/12/01 01:21:23;;;;;;;;;;;4.80;99.90;;;;;;5021543;28;19977;-85
2022/12/01 01:23:49;;;;;;;;;;;5.20;99.90;;;;;;5035760;28;19924;-85
2022/12/01 01:26:15;;;;;;;;;;;5.20;99.90;;;;;;5017796;28;19921;-85
2022/12/01 01:28:40;;;;;;;;;;;4.70;99.90;;;;;;5056078;28;19931;-84
2022/12/01 01:31:06;;;;;;;;;;;4.80;99.90;;;;;;5037317;28;19921;-84
2022/12/01 01:33:32;;;;;;;;;;;4.80;99.90;;;;;;5037503;28;19977;-84
2022/12/01 01:35:58;;;;;;;;;;;6.10;99.90;;;;;;5053899;28;19979;-85
2022/12/01 01:38:24;;;;;;;;;;;5.30;99.90;;;;;;5052285;28;19921;-84
2022/12/01 01:40:50;;;;;;;;;;;4.80;99.90;;;;;;5045489;28;19921;-85
2022/12/01 01:43:16;;;;;;;;;;;4.70;99.90;;;;;;5057434;28;19963;-85
2022/12/01 01:45:42;;;;;;;;;;;4.80;99.90;;;;;;5035665;28;20145;-85
2022/12/01 01:48:10;;;;;;;;;;;4.70;99.90;;;;;;5052507;28;20055;-85
2022/12/01 01:50:36;;;;;;;;;;;5.00;99.90;;;;;;5048323;28;19921;-84
2022/12/01 01:53:03;;;;;;;;;;;4.70;99.90;;;;;;5046615;28;19993;-85
2022/12/01 01:55:31;;;;;;;;;;;4.70;99.90;;;;;;5056781;28;19940;-85
2022/12/01 01:57:56;;;;;;;;;;;4.70;99.90;;;;;;5055834;28;19924;-85
2022/12/01 02:00:22;;;;;;;;;;;4.70;99.90;;;;;;5035147;28;20352;-85
2022/12/01 02:02:48;;;;;;;;;;;4.70;99.90;;;;;;5053327;28;20370;-85
2022/12/01 02:05:22;;;;;;;;;;;5.50;99.90;;;;;;5034092;28;19925;-85
2022/12/01 02:07:49;;;;;;;;;;;4.70;99.90;;;;;;5058299;28;19928;-84
2022/12/01 02:10:21;;;;;;;;;;;4.70;99.90;;;;;;5040120;28;19921;-83
2022/12/01 02:13:05;;;;;;;;;;;5.90;99.90;;;;;;5038454;28;19970;-85
2022/12/01 02:15:44;;;;;;;;;;;4.70;99.90;;;;;;5058432;28;19932;-85
2022/12/01 02:18:09;;;;;;;;;;;4.70;99.90;;;;;;5038574;28;20397;-85
2022/12/01 02:20:47;;;;;;;;;;;5.20;99.90;;;;;;5040008;28;20003;-85
2022/12/01 02:23:31;;;;;;;;;;;4.70;99.90;;;;;;5049434;28;20392;-85
2022/12/01 02:26:00;;;;;;;;;;;4.70;99.90;;;;;;5051988;28;19928;-85
2022/12/01 02:28:40;;;;;;;;;;;4.70;99.90;;;;;;5037499;28;19920;-85
2022/12/01 02:31:17;;;;;;;;;;;4.70;99.90;;;;;;5050984;28;20045;-85
2022/12/01 02:34:09;;;;;;;;;;;4.70;99.90;;;;;;5055637;28;20128;-85
2022/12/01 02:36:50;;;;;;;;;;;4.70;99.90;;;;;;5004067;28;19963;-85
2022/12/01 02:39:19;;;;;;;;;;;4.70;99.90;;;;;;5040265;28;19927;-85
2022/12/01 02:41:50;;;;;;;;;;;4.70;99.90;;;;;;5059386;28;19995;-85
2022/12/01 02:44:18;;;;;;;;;;;4.70;99.90;;;;;;5052018;28;20016;-85
2022/12/01 02:46:55;;;;;;;;;;;4.70;99.90;;;;;;5062857;28;19920;-85
2022/12/01 02:49:26;;;;;;;;;;;4.70;99.90;;;;;;5055631;28;19921;-84
2022/12/01 02:51:53;;;;;;;;;;;4.70;99.90;;;;;;5042246;28;19974;-85
2022/12/01 02:54:19;;;;;;;;;;;5.70;99.90;;;;;;5039886;28;19928;-85
2022/12/01 02:56:44;;;;;;;;;;;4.70;99.90;;;;;;5048870;28;19931;-85
2022/12/01 02:59:11;;;;;;;;;;;4.70;99.90;;;;;;5037055;28;19925;-85
2022/12/01 03:01:42;;;;;;;;;;;4.70;99.90;;;;;;5061051;28;19928;-85
2022/12/01 03:04:23;;;;;;;;;;;4.60;99.90;;;;;;5063247;28;19928;-84
2022/12/01 03:07:07;;;;;;;;;;;4.70;99.90;;;;;;5039005;28;19921;-84
2022/12/01 03:09:38;;;;;;;;;;;4.70;99.90;;;;;;5041882;28;20594;-85
2022/12/01 03:12:04;;;;;;;;;;;4.60;99.90;;;;;;5040856;28;19951;-84
2022/12/01 03:14:44;;;;;;;;;;;4.60;99.90;;;;;;5060284;28;19920;-85
2022/12/01 03:17:14;;;;;;;;;;;4.70;99.90;;;;;;5042897;28;19921;-84
2022/12/01 03:19:46;;;;;;;;;;;4.60;99.90;;;;;;5044602;28;19920;-85
2022/12/01 03:22:28;;;;;;;;;;;4.70;99.90;;;;;;5046709;28;20011;-84
2022/12/01 03:24:54;;;;;;;;;;;4.60;99.90;;;;;;5052407;28;19931;-84
2022/12/01 03:27:21;;;;;;;;;;;4.60;99.90;;;;;;5047313;28;19920;-85
2022/12/01 03:29:48;;;;;;;;;;;4.60;99.90;;;;;;5047486;28;19928;-85
2022/12/01 03:32:14;;;;;;;;;;;4.60;99.90;;;;;;5053341;28;19963;-85
2022/12/01 03:34:43;;;;;;;;;;;6.20;99.90;;;;;;5054093;28;19971;-85
2022/12/01 03:37:17;;;;;;;;;;;4.60;99.90;;;;;;5039332;28;19920;-85
2022/12/01 03:39:43;;;;;;;;;;;6.20;99.90;;;;;;5046157;28;19942;-84
2022/12/01 03:42:17;;;;;;;;;;;4.80;99.90;;;;;;5043221;28;19933;-84
2022/12/01 03:44:46;;;;;;;;;;;4.60;99.90;;;;;;5033304;28;19952;-84
2022/12/01 03:47:15;;;;;;;;;;;4.70;99.90;;;;;;5040339;28;20285;-85
2022/12/01 03:49:41;;;;;;;;;;;4.60;99.90;;;;;;5055095;28;19960;-85
2022/12/01 03:52:10;;;;;;;;;;;4.60;99.90;;;;;;5041035;28;19920;-86
2022/12/01 03:54:38;;;;;;;;;;;4.60;99.90;;;;;;5034884;28;19925;-85
2022/12/01 03:57:09;;;;;;;;;;;4.60;99.90;;;;;;5057295;28;19927;-85
2022/12/01 03:59:36;;;;;;;;;;;4.60;99.90;;;;;;5053963;28;20015;-84
2022/12/01 04:02:02;;;;;;;;;;;4.60;99.90;;;;;;5046445;28;19926;-85
2022/12/01 04:04:27;;;;;;;;;;;4.60;99.90;;;;;;5037534;28;19929;-85
2022/12/01 04:06:53;;;;;;;;;;;4.60;99.90;;;;;;5035865;28;19929;-85
2022/12/01 04:09:19;;;;;;;;;;;4.60;99.90;;;;;;5058620;28;20026;-85
2022/12/01 04:14:29;;;;;;;;;;;4.60;99.90;;;;;;5057824;28;19959;-85
2022/12/01 04:16:54;;;;;;;;;;;4.60;99.90;;;;;;5035762;28;19920;-85
2022/12/01 04:19:20;;;;;;;;;;;4.60;99.90;;;;;;5045165;28;19921;-85
2022/12/01 04:21:45;;;;;;;;;;;5.20;99.90;;;;;;5020313;28;19929;-85
2022/12/01 04:24:11;;;;;;;;;;;4.60;99.90;;;;;;5038681;28;20287;-85
2022/12/01 04:26:37;;;;;;;;;;;4.60;99.90;;;;;;5058158;28;20019;-85
2022/12/01 04:29:04;;;;;;;;;;;4.60;99.90;;;;;;5057569;28;20034;-85
2022/12/01 04:31:29;;;;;;;;;;;4.80;99.90;;;;;;5045562;28;19921;-85
2022/12/01 04:33:55;;;;;;;;;;;4.60;99.90;;;;;;5059754;28;19951;-84
2022/12/01 04:36:21;;;;;;;;;;;4.60;99.90;;;;;;5057461;28;19920;-85
2022/12/01 04:38:47;;;;;;;;;;;4.60;99.90;;;;;;5037403;28;19928;-85
2022/12/01 04:41:13;;;;;;;;;;;4.60;99.90;;;;;;5020729;28;19928;-85
2022/12/01 04:43:39;;;;;;;;;;;4.90;99.90;;;;;;5034967;28;20390;-85
2022/12/01 04:46:05;;;;;;;;;;;6.10;99.90;;;;;;5034379;28;19928;-85
2022/12/01 04:48:33;;;;;;;;;;;4.50;99.90;;;;;;5055226;28;20412;-84
2022/12/01 04:50:59;;;;;;;;;;;4.50;99.90;;;;;;5053089;28;19920;-85
2022/12/01 04:53:25;;;;;;;;;;;4.50;99.90;;;;;;5059213;28;19928;-85
2022/12/01 04:55:50;;;;;;;;;;;5.00;99.90;;;;;;5021900;28;19944;-85
2022/12/01 04:58:16;;;;;;;;;;;5.80;99.90;;;;;;5056068;28;19985;-83
2022/12/01 05:00:41;;;;;;;;;;;4.50;99.90;;;;;;5046577;28;19974;-86
2022/12/01 05:03:07;;;;;;;;;;;4.50;99.90;;;;;;5040633;28;20683;-85
2022/12/01 05:05:32;;;;;;;;;;;5.70;99.90;;;;;;5028542;28;20267;-85
2022/12/01 05:07:58;;;;;;;;;;;4.50;99.90;;;;;;5028159;28;19936;-85
2022/12/01 05:10:24;;;;;;;;;;;5.80;99.90;;;;;;5043629;28;19940;-85
2022/12/01 05:12:49;;;;;;;;;;;5.30;99.90;;;;;;5042812;28;19931;-85
2022/12/01 05:15:15;;;;;;;;;;;4.90;99.90;;;;;;5014685;28;19922;-85
2022/12/01 05:17:41;;;;;;;;;;;4.50;99.90;;;;;;5017754;28;19924;-85
2022/12/01 05:22:51;;;;;;;;;;;4.50;99.90;;;;;;5053504;28;20339;-85
2022/12/01 05:25:17;;;;;;;;;;;4.50;99.90;;;;;;5030884;28;19933;-85
2022/12/01 05:27:43;;;;;;;;;;;4.50;99.90;;;;;;5024075;28;19928;-85
2022/12/01 05:30:08;;;;;;;;;;;5.70;99.90;;;;;;5055414;28;20397;-85
2022/12/01 05:32:34;;;;;;;;;;;4.50;99.90;;;;;;5038045;28;19928;-85
2022/12/01 05:34:59;;;;;;;;;;;4.50;99.90;;;;;;5053074;28;19929;-85
2022/12/01 05:37:25;;;;;;;;;;;4.50;99.90;;;;;;5057661;28;19929;-84
2022/12/01 05:39:51;;;;;;;;;;;5.40;99.90;;;;;;5057052;28;19929;-85
2022/12/01 05:42:16;;;;;;;;;;;4.50;99.90;;;;;;5053877;28;19928;-85
2022/12/01 05:44:42;;;;;;;;;;;4.50;99.90;;;;;;5057271;28;20293;-85
2022/12/01 05:47:07;;;;;;;;;;;4.50;99.90;;;;;;5042655;28;19991;-85
2022/12/01 05:49:33;;;;;;;;;;;5.90;99.90;;;;;;5051013;28;19921;-85
2022/12/01 05:51:58;;;;;;;;;;;4.50;99.90;;;;;;5038954;28;19921;-85
2022/12/01 05:54:24;;;;;;;;;;;4.50;99.90;;;;;;5036405;28;21124;-84
2022/12/01 05:56:49;;;;;;;;;;;4.40;99.90;;;;;;5021369;28;19944;-84
2022/12/01 05:59:15;;;;;;;;;;;4.40;99.90;;;;;;5039233;28;20430;-85
2022/12/01 06:01:40;;;;;;;;;;;4.40;99.90;;;;;;5041755;28;20035;-84
2022/12/01 06:04:07;;;;;;;;;;;4.40;99.90;;;;;;5040297;28;19940;-85
2022/12/01 06:06:33;;;;;;;;;;;4.40;99.90;;;;;;5022629;28;20311;-84
2022/12/01 06:08:58;;;;;;;;;;;4.40;99.90;;;;;;5058394;28;19920;-84
2022/12/01 06:11:24;;;;;;;;;;;4.40;99.90;;;;;;5055551;28;19921;-84
2022/12/01 06:13:49;;;;;;;;;;;4.40;99.90;;;;;;5038430;28;19928;-84
2022/12/01 06:16:15;;;;;;;;;;;5.50;99.90;;;;;;5059562;28;20390;-85
2022/12/01 06:18:40;;;;;;;;;;;5.30;99.90;;;;;;5061656;28;19936;-84
2022/12/01 06:21:06;;;;;;;;;;;4.50;99.90;;;;;;5037779;28;19935;-84
2022/12/01 06:23:31;;;;;;;;;;;4.40;99.90;;;;;;5052477;28;19925;-84
2022/12/01 06:25:57;;;;;;;;;;;4.40;99.90;;;;;;5044432;28;20757;-84
2022/12/01 06:28:23;;;;;;;;;;;4.40;99.90;;;;;;5033772;28;19917;-84
2022/12/01 06:30:48;;;;;;;;;;;4.40;99.90;;;;;;5042408;28;20229;-84
2022/12/01 06:33:14;;;;;;;;;;;4.40;99.90;;;;;;5039478;28;19951;-84
2022/12/01 06:35:40;;;;;;;;;;;4.40;99.90;;;;;;5030916;28;19967;-84
2022/12/01 06:38:05;;;;;;;;;;;4.70;99.90;;;;;;5045289;28;19929;-84
2022/12/01 06:40:31;;;;;;;;;;;5.40;99.90;;;;;;5037432;28;19920;-84
2022/12/01 06:43:01;;;;;;;;;;;4.40;99.90;;;;;;5039567;28;19924;-84
2022/12/01 06:45:27;;;;;;;;;;;4.40;99.90;;;;;;5040487;28;19932;-84
2022/12/01 06:47:53;;;;;;;;;;;4.60;99.90;;;;;;5058057;28;20672;-84
2022/12/01 06:50:19;;;;;;;;;;;4.40;99.90;;;;;;5055940;28;19974;-84
2022/12/01 06:52:44;;;;;;;;;;;4.40;99.90;;;;;;5050766;28;20023;-84
2022/12/01 06:55:10;;;;;;;;;;;4.40;99.90;;;;;;5052105;28;19921;-84
2022/12/01 06:57:35;;;;;;;;;;;4.40;99.90;;;;;;5035441;28;20024;-84
2022/12/01 07:00:02;;;;;;;;;;;4.50;99.90;;;;;;5048617;28;20331;-85
2022/12/01 07:02:28;;;;;;;;;;;4.50;99.90;;;;;;5048500;28;19947;-85
2022/12/01 07:04:53;;;;;;;;;;;4.50;99.90;;;;;;5049512;28;20390;-84
2022/12/01 07:07:19;;;;;;;;;;;5.20;99.90;;;;;;5033246;28;19943;-86
2022/12/01 07:09:44;;;;;;;;;;;4.50;99.90;;;;;;5055193;28;19927;-84
2022/12/01 07:12:10;;;;;;;;;;;4.50;99.90;;;;;;5040072;28;19921;-84
2022/12/01 07:14:36;;;;;;;;;;;4.60;99.90;;;;;;5040294;28;19921;-85
2022/12/01 07:17:02;;;;;;;;;;;4.50;99.90;;;;;;5034407;28;19924;-83
2022/12/01 07:19:27;;;;;;;;;;;5.20;99.90;;;;;;5057046;28;19924;-82
2022/12/01 07:21:53;;;;;;;;;;;4.60;99.90;;;;;;5037478;28;19921;-83
2022/12/01 07:24:18;;;;;;;;;;;5.80;99.90;;;;;;5021223;28;20413;-83
2022/12/01 07:26:44;;;;;;;;;;;4.60;99.90;;;;;;5039685;28;20450;-86
2022/12/01 07:29:10;;;;;;;;;;;4.60;99.90;;;;;;5036307;28;19933;-85
2022/12/01 07:31:36;;;;;;;;;;;5.30;99.90;;;;;;5048037;28;19924;-87
2022/12/01 07:34:02;;;;;;;;;;;4.60;99.90;;;;;;5063559;28;20000;-86
2022/12/01 07:36:27;;;;;;;;;;;4.60;99.90;;;;;;5026695;28;19971;-85
2022/12/01 07:38:53;;;;;;;;;;;4.60;99.90;;;;;;5037581;28;20662;-85
2022/12/01 07:41:19;;;;;;;;;;;4.60;99.90;;;;;;5062281;28;20231;-88
2022/12/01 07:43:45;;;;;;;;;;;4.60;99.90;;;;;;5032361;28;19925;-86
2022/12/01 07:46:12;;;;;;;;;;;5.50;99.90;;;;;;5038557;28;20407;-88
2022/12/01 07:48:38;;;;;;;;;;;4.60;99.90;;;;;;5058394;28;20021;-84
2022/12/01 07:51:04;;;;;;;;;;;4.60;99.90;;;;;;5063251;28;19991;-87
2022/12/01 07:53:29;;;;;;;;;;;4.60;99.90;;;;;;5057375;28;19921;-87
2022/12/01 07:55:55;;;;;;;;;;;4.90;99.90;;;;;;5063315;28;19928;-87
2022/12/01 07:58:20;;;;;;;;;;;4.60;99.90;;;;;;5044064;28;19974;-87
2022/12/01 08:00:46;;;;;;;;;;;6.10;99.90;;;;;;5027638;28;19933;-87
2022/12/01 08:03:12;;;;;;;;;;;4.60;99.90;;;;;;5037959;28;19931;-87
2022/12/01 08:05:37;;;;;;;;;;;6.20;99.90;;;;;;5047577;28;20338;-87
2022/12/01 08:08:03;;;;;;;;;;;4.90;99.90;;;;;;5061371;28;19995;-88
2022/12/01 08:10:29;;;;;;;;;;;4.70;99.90;;;;;;5047289;28;19994;-87
2022/12/01 08:12:54;;;;;;;;;;;4.70;99.90;;;;;;5063250;28;20085;-85
2022/12/01 08:15:20;;;;;;;;;;;4.70;99.90;;;;;;5062944;28;19928;-86
2022/12/01 08:17:45;;;;;;;;;;;4.70;99.90;;;;;;5028269;28;19943;-85
2022/12/01 08:20:11;;;;;;;;;;;4.70;99.90;;;;;;5026780;28;19920;-85
2022/12/01 08:22:36;;;;;;;;;;;4.70;99.90;;;;;;5043289;28;20378;-83
2022/12/01 08:25:02;;;;;;;;;;;4.70;99.90;;;;;;5058208;28;19933;-87
2022/12/01 08:27:28;;;;;;;;;;;4.80;99.90;;;;;;5058845;28;20367;-86
2022/12/01 08:29:53;;;;;;;;;;;5.20;99.90;;;;;;5063922;28;19920;-86
2022/12/01 08:32:19;;;;;;;;;;;4.80;99.90;;;;;;5039875;28;19921;-86
2022/12/01 08:34:44;;;;;;;;;;;4.80;99.90;;;;;;5042800;28;19920;-86
2022/12/01 08:37:10;;;;;;;;;;;4.80;99.90;;;;;;5043314;28;20428;-85
2022/12/01 08:39:35;;;;;;;;;;;5.10;99.90;;;;;;5054186;28;20416;-86
2022/12/01 08:42:01;;;;;;;;;;;4.80;99.90;;;;;;5050143;28;19921;-86
2022/12/01 08:44:27;;;;;;;;;;;5.50;99.90;;;;;;5046887;28;19928;-85
2022/12/01 08:46:53;;;;;;;;;;;4.90;99.90;;;;;;5040706;28;19927;-82
2022/12/01 08:49:19;;;;;;;;;;;5.90;99.90;;;;;;5044508;28;20151;-83
2022/12/01 08:51:44;;;;;;;;;;;4.90;99.90;;;;;;5042838;28;19927;-84
2022/12/01 08:54:10;;;;;;;;;;;5.20;99.90;;;;;;5055545;28;19921;-85
2022/12/01 08:56:37;;;;;;;;;;;4.90;99.90;;;;;;5065504;28;19920;-86
2022/12/01 08:59:03;;;;;;;;;;;5.00;99.90;;;;;;5057758;28;20340;-86
2022/12/01 09:01:29;;;;;;;;;;;5.00;99.90;;;;;;5045953;28;19924;-87
2022/12/01 09:04:04;;;;;;;;;;;5.00;99.90;;;;;;5055320;28;19931;-87
2022/12/01 09:06:31;;;;;;;;;;;5.10;99.90;;;;;;5061186;28;19978;-86
2022/12/01 09:08:57;;;;;;;;;;;5.10;99.90;;;;;;5061230;28;20439;-85
2022/12/01 09:11:23;;;;;;;;;;;6.20;99.90;;;;;;5055043;28;19992;-86
2022/12/01 09:13:48;;;;;;;;;;;5.10;99.90;;;;;;5048174;28;19990;-86
2022/12/01 09:16:15;;;;;;;;;;;5.10;99.90;;;;;;5045425;28;19927;-86
2022/12/01 09:18:42;;;;;;;;;;;6.60;99.90;;;;;;5070585;28;19924;-87
2022/12/01 09:21:11;;;;;;;;;;;5.20;99.90;;;;;;5048561;28;19921;-87
2022/12/01 09:23:38;;;;;;;;;;;5.20;99.90;;;;;;5063842;28;19931;-87
2022/12/01 09:26:04;;;;;;;;;;;6.30;99.90;;;;;;5048052;28;19928;-87
2022/12/01 09:28:29;;;;;;;;;;;5.20;99.90;;;;;;5073274;28;19988;-88
2022/12/01 09:30:55;;;;;;;;;;;5.70;99.90;;;;;;5058343;28;19920;-87
2022/12/01 09:33:21;;;;;;;;;;;5.20;99.90;;;;;;5049626;28;19960;-87
2022/12/01 09:35:46;;;;;;;;;;;5.20;99.90;;;;;;5054106;28;19935;-88
2022/12/01 09:38:12;;;;;;;;;;;5.30;99.90;;;;;;5035269;28;20009;-87
2022/12/01 09:40:39;;;;;;;;;;;5.30;99.90;;;;;;5051271;28;19974;-87
2022/12/01 09:43:10;;;;;;;;;;;6.20;99.90;;;;;;5040688;28;21604;-86
2022/12/01 09:45:39;;;;;;;;;;;5.70;99.90;;;;;;5059744;28;19925;-87
2022/12/01 09:48:05;;;;;;;;;;;5.70;99.90;;;;;;5074679;28;19976;-88
2022/12/01 09:50:31;;;;;;;;;;;5.30;99.90;;;;;;5070556;28;20297;-95
2022/12/01 09:52:59;;;;;;;;;;;5.30;99.90;;;;;;5054737;28;19921;-95
2022/12/01 09:55:25;;;;;;;;;;;6.00;99.90;;;;;;5073751;28;20346;-94
2022/12/01 09:57:51;;;;;;;;;;;5.40;99.90;;;;;;5041861;28;19924;-87
2022/12/01 10:00:19;;;;;;;;;;;5.40;99.90;;;;;;5053917;28;19920;-87
2022/12/01 10:02:51;;;;;;;;;;;5.40;99.90;;;;;;5069812;28;19968;-87
2022/12/01 10:05:21;;;;;;;;;;;5.40;99.90;;;;;;5065729;28;19932;-87
2022/12/01 10:08:07;;;;;;;;;;;5.40;99.90;;;;;;5048550;28;20003;-87
2022/12/01 10:10:35;;;;;;;;;;;5.40;99.90;;;;;;5061709;28;19925;-87
2022/12/01 10:13:01;;;;;;;;;;;5.70;99.90;;;;;;5054435;28;19942;-87
2022/12/01 10:15:27;;;;;;;;;;;5.40;99.90;;;;;;5055684;28;20023;-87
2022/12/01 10:18:01;;;;;;;;;;;5.50;99.90;;;;;;5059015;28;19928;-87
2022/12/01 10:20:30;;;;;;;;;;;5.40;99.90;;;;;;5049949;28;19932;-86
2022/12/01 10:23:05;;;;;;;;;;;5.40;99.90;;;;;;5066464;28;19928;-87
2022/12/01 10:25:36;;;;;;;;;;;5.40;99.90;;;;;;5068311;28;19940;-87
2022/12/01 10:28:11;;;;;;;;;;;5.40;99.90;;;;;;5071804;28;19921;-87
2022/12/01 10:30:40;;;;;;;;;;;5.50;99.90;;;;;;5056122;28;19924;-87
2022/12/01 10:33:36;;;;;;;;;;;5.50;99.90;;;;;;5061880;28;19924;-91
2022/12/01 10:36:01;;;;;;;;;;;5.50;99.90;;;;;;5052959;28;19988;-88
2022/12/01 10:38:29;;;;;;;;;;;7.10;99.90;;;;;;5068943;28;19978;-90
2022/12/01 10:40:59;;;;;;;;;;;5.50;99.90;;;;;;5073032;28;19921;-88
2022/12/01 10:43:30;;;;;;;;;;;5.50;99.90;;;;;;5058021;28;19980;-89
2022/12/01 10:45:57;;;;;;;;;;;7.00;99.90;;;;;;5067660;28;19932;-88
2022/12/01 10:48:22;;;;;;;;;;;5.50;99.90;;;;;;5053367;28;19920;-88
2022/12/01 10:50:52;;;;;;;;;;;7.10;99.90;;;;;;5055877;28;19929;-88
2022/12/01 10:53:29;;;;;;;;;;;5.60;99.90;;;;;;5053390;28;19935;-89
2022/12/01 10:56:01;;;;;;;;;;;5.60;99.90;;;;;;5056750;28;19925;-88
2022/12/01 10:58:26;;;;;;;;;;;5.60;99.90;;;;;;5048158;28;19925;-88
2022/12/01 11:00:56;;;;;;;;;;;5.60;99.90;;;;;;5069221;28;19947;-89
2022/12/01 11:03:24;;;;;;;;;;;5.60;99.90;;;;;;5067133;28;19927;-91
2022/12/01 11:05:52;;;;;;;;;;;5.70;99.90;;;;;;5052219;28;20351;-88
2022/12/01 11:08:21;;;;;;;;;;;5.60;99.90;;;;;;5055346;28;19928;-88
2022/12/01 11:10:47;;;;;;;;;;;6.10;99.90;;;;;;5051979;28;19929;-88
2022/12/01 11:13:21;;;;;;;;;;;6.50;99.90;;;;;;5061095;28;19920;-89
2022/12/01 11:15:51;;;;;;;;;;;5.70;99.90;;;;;;5052783;28;19920;-89
2022/12/01 11:18:28;;;;;;;;;;;5.70;99.90;;;;;;5075908;28;19921;-89
2022/12/01 11:21:04;;;;;;;;;;;5.70;99.90;;;;;;5057263;28;19925;-89
2022/12/01 11:23:30;;;;;;;;;;;5.70;99.90;;;;;;5072890;28;20274;-89
2022/12/01 11:25:56;;;;;;;;;;;5.70;99.90;;;;;;5038399;28;19935;-89
2022/12/01 11:28:21;;;;;;;;;;;5.90;99.90;;;;;;5077681;28;19920;-89
2022/12/01 11:30:53;;;;;;;;;;;7.30;99.90;;;;;;5060023;28;19921;-90
2022/12/01 11:33:19;;;;;;;;;;;6.60;99.90;;;;;;5054607;28;19928;-89
2022/12/01 11:35:46;;;;;;;;;;;5.70;99.90;;;;;;5060895;28;19920;-89
2022/12/01 11:38:18;;;;;;;;;;;6.40;99.90;;;;;;5068993;28;19921;-89
2022/12/01 11:40:45;;;;;;;;;;;5.80;99.90;;;;;;5070164;28;19928;-89
2022/12/01 11:43:18;;;;;;;;;;;5.80;99.90;;;;;;5052084;28;19925;-88
2022/12/01 11:45:44;;;;;;;;;;;5.80;99.90;;;;;;5068519;28;19925;-87
2022/12/01 11:48:14;;;;;;;;;;;6.00;99.90;;;;;;5065447;28;19920;-88
2022/12/01 11:50:41;;;;;;;;;;;5.80;99.90;;;;;;5051033;28;19920;-86
2022/12/01 11:53:25;;;;;;;;;;;5.80;99.90;;;;;;5061296;28;19928;-88
2022/12/01 11:55:50;;;;;;;;;;;5.80;99.90;;;;;;5053110;28;19921;-84
2022/12/01 11:58:16;;;;;;;;;;;5.90;99.90;;;;;;5039138;28;20289;-84
2022/12/01 12:00:41;;;;;;;;;;;5.90;99.90;;;;;;5059685;28;19924;-84
2022/12/01 12:03:13;;;;;;;;;;;6.10;99.90;;;;;;5057846;28;19928;-84
2022/12/01 12:05:48;;;;;;;;;;;6.00;99.90;;;;;;5038143;28;19924;-86
2022/12/01 12:08:24;;;;;;;;;;;6.00;99.90;;;;;;5049210;28;19925;-85
2022/12/01 12:10:50;;;;;;;;;;;6.00;99.90;;;;;;5045650;28;19986;-83
2022/12/01 12:13:34;;;;;;;;;;;6.00;99.90;;;;;;5041546;28;19972;-83
2022/12/01 12:16:03;;;;;;;;;;;5.90;99.90;;;;;;5054716;28;19920;-83
2022/12/01 12:18:47;;;;;;;;;;;5.90;99.90;;;;;;5050011;28;19932;-85
2022/12/01 12:21:16;;;;;;;;;;;5.90;99.90;;;;;;5058685;28;20407;-85
2022/12/01 12:24:04;;;;;;;;;;;5.90;99.90;;;;;;5048931;28;19928;-87
2022/12/01 12:26:43;;;;;;;;;;;5.90;99.90;;;;;;5063432;28;19928;-84
2022/12/01 12:29:12;;;;;;;;;;;5.90;99.90;;;;;;5061664;28;19920;-87
2022/12/01 12:31:47;;;;;;;;;;;5.80;99.90;;;;;;5045944;28;19960;-88
2022/12/01 12:34:21;;;;;;;;;;;5.80;99.90;;;;;;5049560;28;20174;-87
2022/12/01 12:36:55;;;;;;;;;;;5.80;99.90;;;;;;5066260;28;19928;-88
2022/12/01 12:39:23;;;;;;;;;;;5.80;99.90;;;;;;5044396;28;19921;-87
2022/12/01 12:41:52;;;;;;;;;;;5.80;99.90;;;;;;5052535;28;19920;-87
2022/12/01 12:44:36;;;;;;;;;;;5.80;99.90;;;;;;5049624;28;19924;-87
2022/12/01 12:47:11;;;;;;;;;;;5.80;99.90;;;;;;5051674;28;19959;-86
2022/12/01 12:49:36;;;;;;;;;;;5.80;99.90;;;;;;5061673;28;19928;-87
2022/12/01 12:52:05;;;;;;;;;;;5.80;99.90;;;;;;5047698;28;20670;-87
2022/12/01 12:54:34;;;;;;;;;;;5.80;99.90;;;;;;5051001;28;19977;-87
2022/12/01 12:57:20;;;;;;;;;;;5.80;99.90;;;;;;5068179;28;19937;-88
2022/12/01 13:00:09;;;;;;;;;;;5.80;99.90;;;;;;5036313;28;19920;-86
2022/12/01 13:02:47;;;;;;;;;;;5.80;99.90;;;;;;5044246;28;19928;-86
2022/12/01 13:05:19;;;;;;;;;;;5.80;99.90;;;;;;5043537;28;19925;-86
2022/12/01 13:07:48;;;;;;;;;;;5.80;99.90;;;;;;5037227;28;19931;-86
2022/12/01 13:10:29;;;;;;;;;;;5.80;99.90;;;;;;5049559;28;19920;-87
2022/12/01 13:13:09;;;;;;;;;;;5.80;99.90;;;;;;5050847;28;19925;-88
2022/12/01 13:15:36;;;;;;;;;;;5.80;99.90;;;;;;5050847;28;19928;-89
2022/12/01 13:18:08;;;;;;;;;;;6.00;99.90;;;;;;5053076;28;20007;-88
2022/12/01 13:20:34;;;;;;;;;;;5.80;99.90;;;;;;5048643;28;19928;-84
2022/12/01 13:23:00;;;;;;;;;;;6.60;99.90;;;;;;5043937;28;20397;-88
2022/12/01 13:25:28;;;;;;;;;;;5.80;99.90;;;;;;5033171;28;19920;-86
2022/12/01 13:27:55;;;;;;;;;;;5.80;99.90;;;;;;5053844;28;20008;-92
2022/12/01 13:30:22;;;;;;;;;;;5.70;99.90;;;;;;5034388;28;20273;-89
2022/12/01 13:32:48;;;;;;;;;;;5.70;99.90;;;;;;5036014;28;19921;-89
2022/12/01 13:35:20;;;;;;;;;;;5.70;99.90;;;;;;5034062;28;19927;-85
2022/12/01 13:37:46;;;;;;;;;;;5.70;99.90;;;;;;5032904;28;19992;-85
2022/12/01 13:40:29;;;;;;;;;;;5.70;99.90;;;;;;5016709;28;20660;-88
2022/12/01 13:43:03;;;;;;;;;;;5.70;99.90;;;;;;5051382;28;19924;-87
2022/12/01 13:45:33;;;;;;;;;;;5.70;99.90;;;;;;5050709;28;19932;-85
2022/12/01 13:47:59;;;;;;;;;;;5.70;99.90;;;;;;5033375;28;20191;-89
2022/12/01 13:50:44;;;;;;;;;;;5.60;99.90;;;;;;5050879;28;19925;-89
2022/12/01 13:53:16;;;;;;;;;;;5.60;99.90;;;;;;5034041;28;19921;-88
2022/12/01 13:56:01;;;;;;;;;;;5.60;99.90;;;;;;5034975;28;20222;-90
2022/12/01 13:58:32;;;;;;;;;;;5.60;99.90;;;;;;5031513;28;19925;-85
2022/12/01 14:01:17;;;;;;;;;;;5.60;99.90;;;;;;5030798;28;19978;-85
2022/12/01 14:03:50;;;;;;;;;;;5.50;99.90;;;;;;5045836;28;19978;-85
2022/12/01 14:06:45;;;;;;;;;;;5.50;99.90;;;;;;5024547;28;19933;-84
2022/12/01 14:09:23;;;;;;;;;;;5.50;99.90;;;;;;5030669;28;19970;-83
2022/12/01 14:11:55;;;;;;;;;;;5.50;99.90;;;;;;5038270;28;19936;-82
2022/12/01 14:14:22;;;;;;;;;;;5.50;99.90;;;;;;5035894;28;20433;-82
2022/12/01 14:16:57;;;;;;;;;;;5.70;99.90;;;;;;5039732;28;19960;-83
2022/12/01 14:19:32;;;;;;;;;;;5.50;99.90;;;;;;5039303;28;19921;-84
2022/12/01 14:21:58;;;;;;;;;;;5.50;99.90;;;;;;5023576;28;20305;-83
2022/12/01 14:24:27;;;;;;;;;;;6.30;99.90;;;;;;5021651;28;19933;-82
2022/12/01 14:26:53;;;;;;;;;;;5.50;99.90;;;;;;5023199;28;19921;-84
2022/12/01 14:29:38;;;;;;;;;;;5.40;99.90;;;;;;5041633;28;19924;-84
2022/12/01 14:32:07;;;;;;;;;;;5.40;99.90;;;;;;5021499;28;19936;-84
2022/12/01 14:34:33;;;;;;;;;;;5.40;99.90;;;;;;5044121;28;19924;-82
2022/12/01 14:37:18;;;;;;;;;;;5.30;99.90;;;;;;5030603;28;20634;-84
2022/12/01 14:39:46;;;;;;;;;;;6.40;99.90;;;;;;5030683;28;20003;-84
2022/12/01 14:45:17;;;;;;;;;;;5.20;99.90;;;;;;5045001;28;20032;-83
2022/12/01 14:48:03;;;;;;;;;;;5.20;99.90;;;;;;5045874;28;20378;-84